TimePST,TemperatureF,Dew PointF,Humidity,Sea Level PressureIn,VisibilityMPH,Wind Direction,Wind SpeedMPH,Gust SpeedMPH,PrecipitationIn,Events,Conditions,WindDirDegrees,DateUTC
12:17 AM,30.2,28.4,93,29.81,0.2,WSW,6.9,-,N/A,Fog,Light Freezing Fog,240,2012-02-13 08:17:00
12:56 AM,32.0,28.9,88,29.87,0.2,Variable,5.8,-,N/A,Fog,Fog,0,2012-02-13 08:56:00
1:56 AM,32.0,28.9,88,29.88,0.2,Variable,5.8,-,N/A,Fog,Fog,0,2012-02-13 09:56:00
2:06 AM,32.0,28.4,87,29.81,0.2,WSW,5.8,-,N/A,Fog,Fog,240,2012-02-13 10:06:00
2:56 AM,32.0,28.0,85,29.88,0.2,Variable,4.6,-,0.01,Fog-Snow,Light Snow,0,2012-02-13 10:56:00
3:56 AM,32.0,28.0,85,29.89,0.2,Variable,4.6,-,0.01,Fog,Fog,0,2012-02-13 11:56:00
6:48 AM,30.2,26.6,86,29.85,0.2,WSW,4.6,-,0.01,Fog,Light Freezing Fog,240,2012-02-13 14:48:00
6:56 AM,30.9,27.0,85,29.92,0.2,Variable,4.6,-,0.01,Fog-Snow,Light Snow,0,2012-02-13 14:56:00
7:56 AM,30.9,28.0,89,29.94,0.2,WSW,4.6,-,0.01,Fog-Snow,Light Snow,240,2012-02-13 15:56:00
9:56 AM,32.0,28.9,88,29.97,0.2,Variable,4.6,-,N/A,Fog,Fog,0,2012-02-13 17:56:00
10:37 AM,32.0,30.2,93,29.91,0.5,Variable,3.5,-,N/A,Fog,Fog,0,2012-02-13 18:37:00
10:52 AM,32.0,28.4,87,29.91,0.2,Variable,4.6,-,N/A,Fog,Fog,0,2012-02-13 18:52:00
10:56 AM,32.0,28.9,88,29.98,0.2,Variable,5.8,-,N/A,Fog,Fog,0,2012-02-13 18:56:00
11:02 AM,32.0,28.4,87,29.91,1.0,SW,4.6,-,N/A,,Mist,230,2012-02-13 19:02:00
11:13 AM,32.0,28.4,87,29.91,0.8,Variable,3.5,-,N/A,,Overcast,0,2012-02-13 19:13:00
11:22 AM,32.0,30.2,93,29.91,1.2,SW,5.8,-,N/A,,Overcast,230,2012-02-13 19:22:00
11:26 AM,33.8,30.2,87,29.91,2.0,SW,4.6,-,N/A,,Overcast,230,2012-02-13 19:26:00
11:45 AM,33.8,30.2,87,29.90,3.0,Variable,4.6,-,N/A,,Mostly Cloudy,0,2012-02-13 19:45:00
11:47 AM,33.8,30.2,87,29.90,1.8,WSW,5.8,-,N/A,,Mostly Cloudy,250,2012-02-13 19:47:00
11:51 AM,33.8,30.2,87,29.90,0.8,Variable,4.6,-,N/A,,Mostly Cloudy,0,2012-02-13 19:51:00
11:56 AM,33.1,30.0,89,29.97,0.2,WSW,5.8,-,N/A,Fog,Fog,240,2012-02-13 19:56:00
12:08 PM,33.8,30.2,87,29.90,0.5,Variable,3.5,-,N/A,Fog,Fog,0,2012-02-13 20:08:00
12:17 PM,33.8,30.2,87,29.90,0.2,Variable,5.8,-,N/A,Fog,Fog,0,2012-02-13 20:17:00
12:24 PM,33.8,30.2,87,29.90,0.8,WSW,5.8,-,N/A,,Mist,240,2012-02-13 20:24:00
12:32 PM,33.8,30.2,87,29.90,1.5,Variable,5.8,-,N/A,,Overcast,0,2012-02-13 20:32:00
12:35 PM,33.8,30.2,87,29.90,4.0,Variable,3.5,-,N/A,,Overcast,0,2012-02-13 20:35:00
12:56 PM,33.1,30.0,89,29.96,10.0,Variable,3.5,-,N/A,,Overcast,0,2012-02-13 20:56:00
1:17 PM,33.8,30.2,87,29.90,10.0,SW,5.8,-,N/A,,Overcast,230,2012-02-13 21:17:00
1:33 PM,33.8,30.2,87,29.90,1.5,Variable,3.5,-,N/A,,Overcast,0,2012-02-13 21:33:00
1:40 PM,33.8,30.2,87,29.90,1.0,Variable,4.6,-,N/A,,Overcast,0,2012-02-13 21:40:00
1:43 PM,32.0,30.2,93,29.90,2.5,Variable,3.5,-,N/A,,Overcast,0,2012-02-13 21:43:00
1:49 PM,32.0,30.2,93,29.90,1.2,Variable,4.6,-,N/A,,Overcast,0,2012-02-13 21:49:00
1:56 PM,32.0,30.9,96,29.97,0.5,Variable,3.5,-,N/A,Fog,Fog,0,2012-02-13 21:56:00
2:05 PM,32.0,30.2,93,29.90,1.0,Variable,4.6,-,0.00,Snow,Light Snow,0,2012-02-13 22:05:00
2:12 PM,33.8,30.2,87,29.90,0.8,SW,4.6,-,0.00,Snow,Light Snow,230,2012-02-13 22:12:00
2:30 PM,32.0,30.2,93,29.91,0.2,Variable,3.5,-,0.00,Fog-Snow,Light Snow,0,2012-02-13 22:30:00
2:56 PM,32.0,30.0,92,29.99,0.2,Variable,3.5,-,0.00,Fog-Snow,Light Snow,0,2012-02-13 22:56:00
3:26 PM,32.0,30.2,93,29.92,0.5,Variable,4.6,-,0.00,Fog,Fog,0,2012-02-13 23:26:00
3:33 PM,32.0,30.2,93,29.92,0.2,Variable,4.6,-,0.00,Fog,Fog,0,2012-02-13 23:33:00
3:56 PM,32.0,30.9,96,29.99,0.2,Variable,6.9,-,0.00,Fog,Fog,0,2012-02-13 23:56:00
4:56 PM,32.0,30.0,92,29.99,0.2,Variable,5.8,-,0.00,Fog-Snow,Light Snow,0,2012-02-14 00:56:00
5:56 PM,32.0,28.9,88,30.00,0.2,Variable,4.6,-,0.02,Fog-Snow,Light Snow,0,2012-02-14 01:56:00
6:56 PM,33.1,28.9,85,30.01,0.2,Variable,5.8,-,0.01,Fog-Snow,Light Snow,0,2012-02-14 02:56:00
7:56 PM,32.0,28.0,85,30.00,0.2,Variable,5.8,-,0.00,Fog,Fog,0,2012-02-14 03:56:00
8:56 PM,33.1,28.0,82,30.01,0.2,Variable,5.8,-,0.00,Snow,Heavy Snow,0,2012-02-14 04:56:00
9:56 PM,32.0,28.0,85,30.01,0.2,Variable,3.5,-,0.01,Fog,Fog,0,2012-02-14 05:56:00
10:09 PM,32.0,28.4,87,29.93,0.5,Calm,Calm,-,0.00,Fog-Snow,Light Snow,0,2012-02-14 06:09:00
10:25 PM,32.0,28.4,87,29.93,1.5,SW,3.5,-,0.00,,Overcast,230,2012-02-14 06:25:00
10:40 PM,32.0,28.4,87,29.92,2.0,WSW,4.6,-,0.00,,Overcast,240,2012-02-14 06:40:00
10:46 PM,32.0,28.4,87,29.92,1.2,WSW,3.5,-,0.00,,Overcast,240,2012-02-14 06:46:00
10:56 PM,32.0,28.0,85,29.98,0.8,WSW,4.6,-,0.00,,Overcast,250,2012-02-14 06:56:00
11:13 PM,30.2,26.6,86,29.89,0.5,SW,3.5,-,N/A,Fog,Light Freezing Fog,220,2012-02-14 07:13:00
11:31 PM,30.2,26.6,86,29.88,3.0,SW,3.5,-,N/A,,Haze,230,2012-02-14 07:31:00
11:41 PM,30.2,26.6,86,29.88,10.0,Calm,Calm,-,N/A,,Scattered Clouds,0,2012-02-14 07:41:00
11:56 PM,30.0,26.1,85,29.95,6.0,Calm,Calm,-,N/A,,Scattered Clouds,0,2012-02-14 07:56:00